Time;durP1;ratioP1;P1;durP2;ratioP2;P2;SDS_P1;SDS_P2;PMS_P1;PMS_P2;Temp;Humidity;BMP_temperature;BMP_pressure;BME280_temperature;BME280_humidity;BME280_pressure;Samples;Min_cycle;Max_cycle;Signal;HPM_P1;HPM_P2
2023/06/16 00:02:23;;;;;;;11.18;6.78;;;15.20;99.90;;;;;;5032468;28;20033;-78
2023/06/16 00:04:49;;;;;;;9.63;6.68;;;15.10;99.90;;;;;;5032055;28;20040;-78
2023/06/16 00:07:19;;;;;;;11.95;7.85;;;15.10;99.90;;;;;;5032335;28;20037;-79
2023/06/16 00:09:46;;;;;;;9.98;6.68;;;15.10;99.90;;;;;;5032354;28;20057;-79
2023/06/16 00:12:13;;;;;;;11.77;7.30;;;15.00;99.90;;;;;;5032218;28;20143;-79
2023/06/16 00:14:39;;;;;;;11.43;6.95;;;14.90;99.90;;;;;;5050117;28;20037;-79
2023/06/16 00:17:05;;;;;;;10.13;7.45;;;14.80;99.90;;;;;;5034827;28;20106;-79
2023/06/16 00:19:31;;;;;;;10.80;7.15;;;14.70;99.90;;;;;;5035779;28;20086;-78
2023/06/16 00:21:59;;;;;;;11.23;7.40;;;14.70;99.90;;;;;;5019380;28;20052;-78
2023/06/16 00:24:28;;;;;;;14.98;8.40;;;14.60;99.90;;;;;;5035712;28;20107;-78
2023/06/16 00:26:57;;;;;;;12.95;7.95;;;14.60;99.90;;;;;;5053497;28;20044;-78
2023/06/16 00:29:22;;;;;;;10.38;7.85;;;14.50;99.90;;;;;;5053683;28;20469;-78
2023/06/16 00:31:48;;;;;;;12.32;8.75;;;14.50;99.90;;;;;;5035468;28;20120;-78
2023/06/16 00:34:14;;;;;;;10.02;8.32;;;14.50;99.90;;;;;;5053425;28;20094;-78
2023/06/16 00:36:39;;;;;;;11.23;8.35;;;14.50;99.90;;;;;;5053503;28;20392;-78
2023/06/16 00:39:05;;;;;;;13.93;8.93;;;14.40;99.90;;;;;;5035673;28;20488;-77
2023/06/16 00:41:31;;;;;;;12.45;8.95;;;14.50;99.90;;;;;;5035384;28;20037;-77
2023/06/16 00:43:56;;;;;;;13.18;9.40;;;14.50;99.90;;;;;;5053783;28;20045;-78
2023/06/16 00:46:32;;;;;;;14.10;9.27;;;14.40;99.90;;;;;;5053340;28;20044;-78
2023/06/16 00:48:58;;;;;;;12.57;9.20;;;14.40;99.90;;;;;;5034987;28;20053;-78
2023/06/16 00:51:28;;;;;;;12.63;9.00;;;14.40;99.90;;;;;;5053245;28;20798;-78
2023/06/16 00:53:54;;;;;;;12.82;8.98;;;14.40;99.90;;;;;;5035222;28;20041;-78
2023/06/16 00:56:21;;;;;;;16.00;8.20;;;14.40;99.90;;;;;;5034877;28;20048;-78
2023/06/16 00:58:50;;;;;;;9.70;7.60;;;14.30;99.90;;;;;;5035432;28;20041;-78
2023/06/16 01:01:16;;;;;;;13.75;8.63;;;14.20;99.90;;;;;;5052681;28;20037;-78
2023/06/16 01:03:42;;;;;;;12.15;8.40;;;14.10;99.90;;;;;;5052851;28;20041;-78
2023/06/16 01:06:29;;;;;;;9.73;7.45;;;14.10;99.90;;;;;;5034795;28;20611;-78
2023/06/16 01:09:03;;;;;;;12.98;8.85;;;14.10;99.90;;;;;;5034987;28;20060;-78
2023/06/16 01:11:41;;;;;;;11.18;8.35;;;14.10;99.90;;;;;;5026310;28;20663;-78
2023/06/16 01:14:15;;;;;;;10.90;7.93;;;14.10;99.90;;;;;;5034601;28;20054;-77
2023/06/16 01:16:44;;;;;;;11.93;8.18;;;13.90;99.90;;;;;;5045525;28;20087;-78
2023/06/16 01:19:19;;;;;;;10.80;8.32;;;13.90;99.90;;;;;;5052703;28;20060;-78
2023/06/16 01:21:56;;;;;;;14.68;10.07;;;13.80;99.90;;;;;;5045251;28;20037;-78
2023/06/16 01:24:24;;;;;;;19.75;10.50;;;13.80;99.90;;;;;;5052284;28;20049;-79
2023/06/16 01:26:52;;;;;;;14.60;11.10;;;13.80;99.90;;;;;;5052067;28;20057;-77
2023/06/16 01:29:22;;;;;;;14.93;10.85;;;13.70;99.90;;;;;;5034164;28;20057;-78
2023/06/16 01:31:50;;;;;;;13.60;9.55;;;13.70;99.90;;;;;;5052389;28;20064;-78
2023/06/16 01:34:18;;;;;;;18.00;10.80;;;13.70;99.90;;;;;;5052311;28;20047;-78
2023/06/16 01:36:44;;;;;;;14.52;10.75;;;13.60;99.90;;;;;;5052479;28;20424;-78
2023/06/16 01:39:12;;;;;;;11.65;9.45;;;13.60;99.90;;;;;;5052147;28;20033;-78
2023/06/16 01:41:39;;;;;;;11.43;9.43;;;13.50;99.90;;;;;;5051764;28;20049;-78
2023/06/16 01:44:05;;;;;;;11.50;9.02;;;13.50;99.90;;;;;;5051855;28;20052;-78
2023/06/16 01:46:32;;;;;;;11.80;8.60;;;13.50;99.90;;;;;;5034326;28;20037;-78
2023/06/16 01:48:58;;;;;;;13.85;9.05;;;13.50;99.90;;;;;;5052017;28;20242;-78
2023/06/16 01:51:25;;;;;;;11.25;7.95;;;13.50;99.90;;;;;;5034298;28;20458;-79
2023/06/16 01:53:52;;;;;;;13.05;8.23;;;13.40;99.90;;;;;;5051900;28;20055;-79
2023/06/16 01:56:19;;;;;;;12.88;7.38;;;13.50;99.90;;;;;;5051683;28;20045;-77
2023/06/16 01:58:45;;;;;;;11.85;7.97;;;13.40;99.90;;;;;;5034039;28;20053;-79
2023/06/16 02:01:14;;;;;;;9.73;7.40;;;13.40;99.90;;;;;;5034035;28;20400;-78
2023/06/16 02:03:48;;;;;;;12.05;8.00;;;13.30;99.90;;;;;;5051773;28;20385;-78
2023/06/16 02:06:32;;;;;;;13.93;8.50;;;13.30;99.90;;;;;;5051573;28;20599;-79
2023/06/16 02:09:02;;;;;;;11.88;8.85;;;13.30;99.90;;;;;;5051814;28;20130;-79
2023/06/16 02:11:28;;;;;;;11.20;8.18;;;13.20;99.90;;;;;;5016638;28;20053;-78
2023/06/16 02:13:54;;;;;;;10.73;8.40;;;13.20;99.90;;;;;;5051616;28;20106;-78
2023/06/16 02:16:20;;;;;;;14.52;8.48;;;13.20;99.90;;;;;;5051361;28;20056;-78
2023/06/16 02:18:49;;;;;;;11.35;8.55;;;13.10;99.90;;;;;;5051328;28;20049;-78
2023/06/16 02:21:16;;;;;;;12.55;8.90;;;13.20;99.90;;;;;;5051330;28;20036;-79
2023/06/16 02:23:41;;;;;;;10.90;8.32;;;13.20;99.90;;;;;;5042733;28;20041;-78
2023/06/16 02:26:07;;;;;;;15.50;8.05;;;13.10;99.90;;;;;;5033416;28;20512;-78
2023/06/16 02:28:33;;;;;;;10.10;8.35;;;13.10;99.90;;;;;;5051032;28;20111;-78
2023/06/16 02:30:58;;;;;;;11.73;8.60;;;13.00;99.90;;;;;;5033629;28;20098;-78
2023/06/16 02:33:24;;;;;;;11.50;8.57;;;13.00;99.90;;;;;;5051326;28;20369;-78
2023/06/16 02:35:49;;;;;;;10.73;8.35;;;12.90;99.90;;;;;;5051085;28;20045;-78
2023/06/16 02:38:15;;;;;;;12.52;8.25;;;12.90;99.90;;;;;;5032524;28;20048;-79
2023/06/16 02:40:41;;;;;;;9.73;8.20;;;13.10;99.90;;;;;;5051089;28;20044;-78
2023/06/16 02:43:06;;;;;;;10.40;7.78;;;12.80;99.90;;;;;;5051341;28;20040;-78
2023/06/16 02:45:32;;;;;;;8.63;7.47;;;12.70;99.90;;;;;;5050921;28;20044;-78
2023/06/16 02:47:57;;;;;;;14.18;9.75;;;12.70;99.90;;;;;;5051287;28;20098;-78
2023/06/16 02:50:23;;;;;;;12.98;8.77;;;12.80;99.90;;;;;;5033174;28;20044;-79
2023/06/16 02:52:49;;;;;;;12.27;8.85;;;12.60;99.90;;;;;;5032510;28;20395;-78
2023/06/16 02:55:16;;;;;;;11.45;8.48;;;12.60;99.90;;;;;;5051012;28;20056;-78
2023/06/16 02:57:41;;;;;;;11.90;8.63;;;12.60;99.90;;;;;;5051074;28;20044;-78
2023/06/16 03:00:10;;;;;;;15.70;9.93;;;12.60;99.90;;;;;;5050273;28;20120;-79
2023/06/16 03:02:37;;;;;;;14.95;9.82;;;12.60;99.90;;;;;;5050721;28;20083;-78
2023/06/16 03:05:03;;;;;;;15.55;10.05;;;12.70;99.90;;;;;;5032541;28;20500;-78
2023/06/16 03:07:34;;;;;;;13.80;8.88;;;12.60;99.90;;;;;;5050609;28;20055;-78
2023/06/16 03:09:59;;;;;;;15.68;9.85;;;12.60;99.90;;;;;;5050732;28;20129;-78
2023/06/16 03:12:25;;;;;;;10.90;8.98;;;12.50;99.90;;;;;;5050656;28;20135;-78
2023/06/16 03:14:51;;;;;;;12.63;9.82;;;12.50;99.90;;;;;;5032442;28;20056;-78
2023/06/16 03:17:20;;;;;;;16.77;9.98;;;12.60;99.90;;;;;;5032658;28;20045;-77
2023/06/16 03:19:48;;;;;;;15.27;9.55;;;12.60;99.90;;;;;;5032380;28;20790;-78
2023/06/16 03:22:13;;;;;;;12.15;9.73;;;12.60;99.90;;;;;;5032419;28;20033;-78
2023/06/16 03:24:41;;;;;;;11.27;9.10;;;12.80;99.90;;;;;;5032294;28;20056;-77
2023/06/16 03:27:08;;;;;;;12.15;9.02;;;12.60;99.90;;;;;;5050407;28;20131;-78
2023/06/16 03:29:34;;;;;;;15.45;10.48;;;12.60;99.90;;;;;;5032265;28;20055;-78
2023/06/16 03:32:00;;;;;;;11.80;10.15;;;12.60;99.90;;;;;;5031166;28;20491;-78
2023/06/16 03:34:26;;;;;;;15.63;10.60;;;12.60;99.90;;;;;;5050254;28;20052;-78
2023/06/16 03:36:52;;;;;;;13.77;10.00;;;12.60;99.90;;;;;;5050134;28;20543;-78
2023/06/16 03:39:17;;;;;;;14.70;10.63;;;12.70;99.90;;;;;;5032698;28;20044;-79
2023/06/16 03:41:44;;;;;;;13.55;10.23;;;12.70;99.90;;;;;;5050050;28;20098;-79
2023/06/16 03:44:09;;;;;;;13.93;10.50;;;12.80;99.90;;;;;;5050227;28;20143;-78
2023/06/16 03:46:35;;;;;;;16.60;10.82;;;12.90;99.90;;;;;;5049843;28;20246;-77
2023/06/16 03:49:00;;;;;;;17.02;10.98;;;12.90;99.90;;;;;;5050537;28;20066;-78
2023/06/16 03:51:26;;;;;;;13.02;11.02;;;13.00;99.90;;;;;;5034471;28;20037;-78
2023/06/16 03:53:52;;;;;;;15.15;10.65;;;13.00;99.90;;;;;;5054506;28;20186;-77
2023/06/16 03:56:21;;;;;;;13.43;10.75;;;13.00;99.90;;;;;;5036739;28;20060;-78
2023/06/16 03:58:48;;;;;;;16.58;11.70;;;13.00;99.90;;;;;;5054229;28;20514;-78
2023/06/16 04:01:15;;;;;;;14.75;11.23;;;13.10;99.90;;;;;;5054715;28;20056;-78
2023/06/16 04:03:40;;;;;;;12.98;10.65;;;13.10;99.90;;;;;;5035801;28;20049;-78
2023/06/16 04:06:06;;;;;;;18.02;12.13;;;13.20;99.90;;;;;;5036515;28;20460;-78
2023/06/16 04:08:32;;;;;;;18.30;12.52;;;13.30;99.90;;;;;;5054314;28;20060;-78
2023/06/16 04:10:58;;;;;;;17.38;12.07;;;13.30;99.90;;;;;;5056459;28;20048;-77
2023/06/16 04:13:25;;;;;;;17.02;11.93;;;13.30;99.90;;;;;;5056110;28;20450;-77
2023/06/16 04:15:51;;;;;;;19.52;13.90;;;13.70;99.90;;;;;;5036228;28;20049;-78
2023/06/16 04:18:17;;;;;;;14.52;11.95;;;13.50;99.90;;;;;;5053685;28;20048;-78
2023/06/16 04:20:42;;;;;;;20.13;13.15;;;13.60;99.90;;;;;;5053713;28;20416;-78
2023/06/16 04:23:09;;;;;;;16.85;13.52;;;13.70;99.90;;;;;;5035706;28;20052;-78
2023/06/16 04:25:38;;;;;;;16.30;12.93;;;13.80;99.90;;;;;;5053708;28;20052;-78
2023/06/16 04:28:05;;;;;;;17.25;14.52;;;13.90;99.90;;;;;;5035537;28;20052;-78
2023/06/16 04:30:33;;;;;;;20.20;14.85;;;13.90;99.90;;;;;;5053209;28;20519;-77
2023/06/16 04:33:01;;;;;;;17.65;15.15;;;14.10;99.90;;;;;;5035721;28;20040;-78
2023/06/16 04:35:29;;;;;;;20.77;14.63;;;14.10;99.90;;;;;;5036562;28;20488;-78
2023/06/16 04:37:57;;;;;;;21.83;16.45;;;14.30;99.90;;;;;;5045148;28;20051;-77
2023/06/16 04:40:23;;;;;;;20.48;15.05;;;14.40;99.90;;;;;;5035587;28;20040;-78
2023/06/16 04:42:49;;;;;;;26.40;19.27;;;14.40;99.90;;;;;;5053802;28;20400;-78
2023/06/16 04:45:15;;;;;;;23.92;17.83;;;14.60;99.90;;;;;;5035868;28;20080;-78
2023/06/16 04:47:42;;;;;;;26.25;20.98;;;14.60;99.90;;;;;;5052871;28;20484;-77
2023/06/16 04:50:09;;;;;;;22.90;19.50;;;14.70;99.90;;;;;;5053710;28;20501;-78
2023/06/16 04:52:39;;;;;;;26.48;21.15;;;14.80;99.90;;;;;;5053272;28;20036;-77
2023/06/16 04:55:05;;;;;;;26.98;21.40;;;14.90;99.90;;;;;;5053432;28;20045;-78
2023/06/16 04:57:32;;;;;;;25.13;20.90;;;15.00;99.90;;;;;;5053163;28;20484;-78
2023/06/16 05:00:03;;;;;;;29.88;23.08;;;15.00;99.90;;;;;;5053100;28;20041;-78
2023/06/16 05:02:29;;;;;;;24.08;21.45;;;15.10;99.90;;;;;;5052388;28;20052;-79
2023/06/16 05:04:55;;;;;;;25.38;20.73;;;15.10;99.90;;;;;;5034651;28;20044;-78
2023/06/16 05:07:21;;;;;;;26.05;20.85;;;15.30;99.90;;;;;;5034881;28;20053;-79
2023/06/16 05:09:46;;;;;;;24.15;20.83;;;15.30;99.90;;;;;;5034792;28;20058;-79
2023/06/16 05:12:12;;;;;;;28.25;22.30;;;15.40;99.90;;;;;;5034725;28;20500;-79
2023/06/16 05:14:38;;;;;;;25.73;21.35;;;15.50;99.90;;;;;;5052642;28;20485;-79
2023/06/16 05:17:04;;;;;;;26.80;22.23;;;15.50;99.90;;;;;;5034866;28;20053;-79
2023/06/16 05:19:32;;;;;;;23.52;20.63;;;15.60;99.90;;;;;;5052289;28;20509;-78
2023/06/16 05:21:58;;;;;;;22.75;19.17;;;15.70;99.90;;;;;;5052771;28;20044;-79
2023/06/16 05:24:24;;;;;;;23.65;20.05;;;15.90;99.90;;;;;;5052633;28;20396;-78
2023/06/16 05:26:50;;;;;;;22.73;19.85;;;16.00;99.90;;;;;;5052710;28;20029;-78
2023/06/16 05:29:16;;;;;;;22.67;20.27;;;16.10;99.90;;;;;;5034450;28;20489;-77
2023/06/16 05:31:42;;;;;;;21.98;19.00;;;16.20;99.90;;;;;;5034407;28;20090;-78
2023/06/16 05:34:07;;;;;;;21.42;18.60;;;16.30;99.90;;;;;;5052416;28;20053;-78
2023/06/16 05:36:35;;;;;;;26.08;19.52;;;16.40;99.90;;;;;;5034800;28;20472;-78
2023/06/16 05:39:03;;;;;;;24.90;19.60;;;16.50;99.90;;;;;;5018288;28;20051;-78
2023/06/16 05:41:28;;;;;;;25.00;18.02;;;16.70;99.90;;;;;;5052303;28;20414;-77
2023/06/16 05:43:55;;;;;;;21.33;17.13;;;16.80;99.90;;;;;;5052226;28;20065;-79
2023/06/16 05:46:21;;;;;;;18.70;16.70;;;16.90;99.90;;;;;;5052286;28;20040;-79
2023/06/16 05:48:50;;;;;;;19.00;15.50;;;17.00;99.90;;;;;;5052361;28;20043;-76
2023/06/16 05:51:21;;;;;;;20.02;15.32;;;17.20;99.90;;;;;;5051967;28;20073;-78
2023/06/16 05:53:46;;;;;;;19.63;15.30;;;17.30;99.90;;;;;;5052309;28;20044;-79
2023/06/16 05:56:12;;;;;;;18.83;15.40;;;17.50;99.90;;;;;;5034245;28;20063;-79
2023/06/16 05:58:38;;;;;;;19.45;15.45;;;17.60;99.90;;;;;;5052116;28;20408;-78
2023/06/16 06:01:06;;;;;;;16.23;13.18;;;17.70;99.90;;;;;;5052012;28;20123;-78
2023/06/16 06:03:31;;;;;;;16.45;14.65;;;17.80;99.90;;;;;;5052039;28;20546;-78
2023/06/16 06:05:57;;;;;;;18.05;14.23;;;18.00;99.90;;;;;;5052148;28;20045;-78
2023/06/16 06:08:27;;;;;;;17.83;15.15;;;18.10;99.90;;;;;;5051895;28;20073;-78
2023/06/16 06:10:53;;;;;;;19.77;14.68;;;18.20;99.90;;;;;;5051819;28;20124;-80
2023/06/16 06:13:19;;;;;;;17.38;14.48;;;18.00;99.90;;;;;;5050782;28;20404;-80
2023/06/16 06:15:44;;;;;;;19.92;14.05;;;18.40;99.90;;;;;;5051826;28;20159;-79
2023/06/16 06:18:10;;;;;;;17.58;14.15;;;18.40;99.90;;;;;;5051676;28;20055;-80
2023/06/16 06:20:38;;;;;;;19.20;14.65;;;18.50;99.90;;;;;;5051426;28;20381;-79
2023/06/16 06:23:04;;;;;;;20.60;14.32;;;18.50;99.90;;;;;;5033389;28;20055;-79
2023/06/16 06:25:30;;;;;;;16.10;14.15;;;18.60;99.90;;;;;;5033754;28;20052;-79
2023/06/16 06:27:56;;;;;;;17.73;13.80;;;18.70;99.90;;;;;;5051440;28;20037;-79
2023/06/16 06:30:22;;;;;;;18.52;14.40;;;18.80;99.90;;;;;;5033520;28;20057;-79
2023/06/16 06:32:47;;;;;;;16.70;13.48;;;19.00;99.90;;;;;;5016172;28;20049;-78
2023/06/16 06:35:13;;;;;;;15.98;12.93;;;19.20;99.90;;;;;;5033494;28;20086;-79
2023/06/16 06:37:39;;;;;;;17.60;13.73;;;19.50;99.90;;;;;;5033206;28;20455;-77
2023/06/16 06:40:05;;;;;;;18.35;13.93;;;19.50;99.90;;;;;;5051262;28;20500;-78
2023/06/16 06:42:31;;;;;;;14.02;11.77;;;19.70;99.90;;;;;;5016221;28;20064;-79
2023/06/16 06:44:56;;;;;;;13.05;11.35;;;20.00;99.90;;;;;;5032949;28;20041;-80
2023/06/16 06:47:22;;;;;;;15.38;12.57;;;20.20;99.90;;;;;;5033103;28;20032;-80
2023/06/16 06:49:49;;;;;;;13.48;11.32;;;20.30;99.90;;;;;;5050861;28;20103;-78
2023/06/16 06:52:15;;;;;;;17.30;11.55;;;20.40;99.90;;;;;;5032640;28;20041;-81
2023/06/16 06:54:41;;;;;;;14.60;11.07;;;20.60;99.90;;;;;;5033046;28;20057;-81
2023/06/16 06:57:07;;;;;;;18.00;11.82;;;20.90;99.90;;;;;;5051060;28;20040;-79
2023/06/16 06:59:33;;;;;;;12.85;10.85;;;21.10;99.90;;;;;;5016359;28;20092;-79
2023/06/16 07:01:58;;;;;;;13.07;10.93;;;21.40;99.90;;;;;;5033158;28;20056;-78
2023/06/16 07:04:25;;;;;;;11.57;9.52;;;21.70;99.90;;;;;;5032460;28;20074;-81
2023/06/16 07:06:51;;;;;;;12.20;9.25;;;21.80;99.90;;;;;;5015710;28;20056;-81
2023/06/16 07:09:17;;;;;;;13.32;9.93;;;22.10;99.90;;;;;;5050469;28;20056;-80
2023/06/16 07:11:43;;;;;;;13.20;9.20;;;22.20;99.90;;;;;;5050825;28;20043;-80
2023/06/16 07:14:08;;;;;;;11.32;7.50;;;22.40;99.90;;;;;;5050745;28;20052;-78
2023/06/16 07:16:34;;;;;;;10.88;7.53;;;22.50;99.90;;;;;;5032557;28;20071;-79
2023/06/16 07:19:01;;;;;;;10.63;6.75;;;22.60;99.90;;;;;;5050357;28;20056;-80
2023/06/16 07:21:27;;;;;;;9.43;6.32;;;22.80;99.90;;;;;;5032632;28;20048;-80
2023/06/16 07:23:53;;;;;;;12.60;8.35;;;23.10;99.90;;;;;;5015259;28;20113;-79
2023/06/16 07:26:19;;;;;;;13.52;8.38;;;23.30;99.90;;;;;;5032637;28;20045;-79
2023/06/16 07:28:45;;;;;;;9.38;8.05;;;23.30;99.90;;;;;;5042348;28;20412;-81
2023/06/16 07:31:10;;;;;;;11.07;8.98;;;23.50;99.90;;;;;;5032709;28;20527;-80
2023/06/16 07:33:36;;;;;;;13.82;8.80;;;23.50;99.90;;;;;;5032528;28;20071;-80
2023/06/16 07:36:02;;;;;;;10.35;8.38;;;23.30;99.90;;;;;;5050671;28;20492;-79
2023/06/16 07:38:28;;;;;;;11.60;8.00;;;23.50;99.90;;;;;;5050109;28;20048;-80
2023/06/16 07:40:54;;;;;;;10.60;8.35;;;23.50;99.90;;;;;;5032097;28;20102;-80
2023/06/16 07:43:21;;;;;;;9.77;7.15;;;23.70;99.90;;;;;;5032570;28;20060;-80
2023/06/16 07:45:47;;;;;;;8.30;6.85;;;24.00;99.90;;;;;;5032493;28;20057;-79
2023/06/16 07:48:14;;;;;;;11.98;7.88;;;24.20;99.90;;;;;;5032039;28;20049;-80
2023/06/16 07:50:40;;;;;;;9.60;6.80;;;24.30;99.90;;;;;;5050066;28;20076;-81
2023/06/16 07:53:06;;;;;;;14.90;6.35;;;24.40;99.90;;;;;;5031976;28;20535;-81
2023/06/16 07:55:32;;;;;;;8.43;6.05;;;24.40;99.90;;;;;;5032382;28;20049;-79
2023/06/16 07:57:58;;;;;;;8.18;5.75;;;24.40;99.80;;;;;;5032417;28;20381;-78
2023/06/16 08:00:24;;;;;;;6.78;5.22;;;24.70;99.50;;;;;;5031987;28;20048;-81
2023/06/16 08:02:50;;;;;;;7.25;5.90;;;24.70;99.10;;;;;;5031933;28;20048;-80
2023/06/16 08:05:16;;;;;;;9.40;5.53;;;25.00;99.00;;;;;;5049741;28;20552;-80
2023/06/16 08:07:43;;;;;;;7.45;4.88;;;24.90;98.70;;;;;;5032186;28;20049;-82
2023/06/16 08:10:10;;;;;;;9.70;4.63;;;25.10;98.60;;;;;;5049528;28;20444;-82
2023/06/16 08:12:36;;;;;;;6.88;4.55;;;24.90;97.90;;;;;;5050146;28;20047;-81
2023/06/16 08:15:05;;;;;;;9.80;5.25;;;24.90;97.60;;;;;;5031855;28;20478;-79
2023/06/16 08:17:31;;;;;;;9.60;5.03;;;24.90;96.00;;;;;;5049959;28;20072;-80
2023/06/16 08:19:57;;;;;;;5.50;3.28;;;24.80;96.40;;;;;;5032035;28;20108;-79
2023/06/16 08:22:22;;;;;;;6.28;3.80;;;24.80;96.00;;;;;;5031751;28;20049;-81
2023/06/16 08:24:48;;;;;;;7.88;3.75;;;24.90;95.50;;;;;;5049170;28;20049;-80
2023/06/16 08:27:14;;;;;;;7.05;2.92;;;24.90;95.50;;;;;;5031876;28;20469;-81
2023/06/16 08:29:41;;;;;;;5.22;3.20;;;25.10;94.00;;;;;;5049143;28;20059;-80
2023/06/16 08:32:07;;;;;;;4.40;2.67;;;25.10;94.20;;;;;;5049896;28;20033;-78
2023/06/16 08:34:35;;;;;;;7.03;2.65;;;25.20;92.90;;;;;;5031623;28;20529;-81
2023/06/16 08:37:01;;;;;;;6.20;2.70;;;25.40;92.00;;;;;;5032955;28;20041;-78
2023/06/16 08:39:27;;;;;;;3.50;2.10;;;25.20;92.00;;;;;;5053061;28;20117;-78
2023/06/16 08:41:53;;;;;;;6.57;2.45;;;25.50;92.20;;;;;;5053186;28;20124;-80
2023/06/16 08:44:21;;;;;;;4.18;2.08;;;25.70;91.70;;;;;;5035349;28;20053;-77
2023/06/16 08:46:46;;;;;;;5.28;2.88;;;25.80;91.10;;;;;;5035117;28;20098;-81
2023/06/16 08:49:14;;;;;;;6.90;2.30;;;25.80;90.70;;;;;;5035030;28;20037;-80
2023/06/16 08:51:47;;;;;;;4.78;2.63;;;25.90;90.30;;;;;;5018476;28;20053;-80
2023/06/16 08:54:14;;;;;;;7.28;2.03;;;25.60;85.00;;;;;;5027330;28;20041;-81
2023/06/16 08:56:43;;;;;;;3.63;2.13;;;25.50;88.70;;;;;;5053077;28;20052;-82
2023/06/16 08:59:11;;;;;;;4.45;2.20;;;25.70;87.00;;;;;;5053285;28;20045;-81
2023/06/16 09:01:39;;;;;;;10.40;2.00;;;25.70;84.30;;;;;;5035131;28;20057;-81
2023/06/16 09:04:09;;;;;;;3.90;1.80;;;25.60;86.00;;;;;;5052611;28;20040;-81
2023/06/16 09:06:35;;;;;;;6.30;1.95;;;25.70;84.00;;;;;;5035324;28;20060;-80
2023/06/16 09:09:01;;;;;;;8.48;2.40;;;25.90;84.90;;;;;;5017905;28;20105;-81
2023/06/16 09:11:28;;;;;;;13.25;2.28;;;25.80;83.80;;;;;;5026504;28;20122;-81
2023/06/16 09:13:54;;;;;;;6.15;2.38;;;25.90;84.70;;;;;;5052768;28;20049;-77
2023/06/16 09:16:21;;;;;;;8.02;2.17;;;26.00;85.60;;;;;;5034568;28;20049;-80
2023/06/16 09:18:48;;;;;;;5.90;2.33;;;26.40;85.80;;;;;;5034666;28;20484;-82
2023/06/16 09:21:18;;;;;;;5.32;2.30;;;26.50;85.30;;;;;;5052512;28;20063;-82
2023/06/16 09:23:44;;;;;;;7.50;2.20;;;26.30;83.80;;;;;;5052607;28;20052;-82
2023/06/16 09:26:12;;;;;;;5.40;2.13;;;26.50;85.40;;;;;;5052028;28;20044;-82
2023/06/16 09:28:39;;;;;;;2.83;1.88;;;26.40;84.60;;;;;;5034261;28;20053;-82
2023/06/16 09:31:06;;;;;;;7.13;2.30;;;26.50;84.90;;;;;;5052472;28;20433;-82
2023/06/16 09:33:31;;;;;;;3.97;2.25;;;26.40;83.70;;;;;;5052235;28;20036;-80
2023/06/16 09:35:58;;;;;;;6.43;2.22;;;26.30;83.70;;;;;;5052333;28;20055;-82
2023/06/16 09:38:24;;;;;;;6.82;2.03;;;26.10;83.60;;;;;;5052287;28;20099;-82
2023/06/16 09:40:49;;;;;;;6.47;2.15;;;26.40;84.30;;;;;;5052308;28;20048;-81
2023/06/16 09:43:15;;;;;;;6.65;2.95;;;26.20;83.70;;;;;;5034093;28;20124;-81
2023/06/16 09:45:41;;;;;;;5.95;1.80;;;26.20;82.50;;;;;;5052022;28;20052;-82
2023/06/16 09:48:10;;;;;;;4.13;2.03;;;26.20;83.10;;;;;;5034473;28;20119;-82
2023/06/16 09:50:36;;;;;;;5.50;1.70;;;26.30;83.50;;;;;;5034182;28;20492;-81
2023/06/16 09:53:07;;;;;;;14.90;2.22;;;26.70;82.50;;;;;;5034198;28;20076;-80
2023/06/16 09:55:41;;;;;;;3.13;1.90;;;26.70;83.20;;;;;;5034424;28;20084;-79
2023/06/16 09:58:07;;;;;;;7.15;1.90;;;26.80;80.60;;;;;;5033812;28;20049;-81
2023/06/16 10:00:34;;;;;;;5.40;1.90;;;26.80;82.10;;;;;;5034278;28;20369;-81
2023/06/16 10:03:02;;;;;;;3.55;1.90;;;26.60;79.90;;;;;;5051917;28;20041;-80
2023/06/16 10:05:31;;;;;;;7.15;1.90;;;26.60;81.00;;;;;;5051764;28;20046;-81
2023/06/16 10:07:57;;;;;;;4.93;2.35;;;26.80;79.50;;;;;;5052044;28;20053;-80
2023/06/16 10:10:28;;;;;;;5.68;2.03;;;26.60;80.00;;;;;;5051889;28;20055;-80
2023/06/16 10:12:55;;;;;;;4.95;1.90;;;26.30;79.00;;;;;;5051495;28;20049;-81
2023/06/16 10:15:27;;;;;;;6.38;2.10;;;26.60;79.40;;;;;;5033533;28;20151;-81
2023/06/16 10:18:03;;;;;;;3.60;2.00;;;26.30;77.80;;;;;;5051530;28;20033;-81
2023/06/16 10:20:32;;;;;;;3.53;2.45;;;26.40;79.10;;;;;;5051220;28;20067;-80
2023/06/16 10:22:59;;;;;;;4.13;2.10;;;26.40;79.30;;;;;;5051652;28;20045;-81
2023/06/16 10:25:25;;;;;;;7.40;1.88;;;26.50;77.80;;;;;;5051121;28;20493;-81
2023/06/16 10:27:52;;;;;;;10.52;2.20;;;26.60;78.20;;;;;;5033140;28;20463;-80
2023/06/16 10:30:19;;;;;;;5.00;2.47;;;26.50;78.00;;;;;;5051127;28;20079;-81
2023/06/16 10:32:55;;;;;;;4.60;2.28;;;26.60;76.70;;;;;;5033292;28;20504;-81
2023/06/16 10:35:22;;;;;;;3.88;1.90;;;26.40;75.50;;;;;;5032891;28;20052;-80
2023/06/16 10:37:55;;;;;;;3.08;1.77;;;26.50;78.40;;;;;;5033009;28;20045;-81
2023/06/16 10:40:22;;;;;;;5.03;2.10;;;27.00;77.10;;;;;;5033021;28;20103;-79
2023/06/16 10:42:49;;;;;;;4.85;1.90;;;27.10;76.30;;;;;;5050857;28;20048;-78
2023/06/16 10:45:31;;;;;;;3.85;2.22;;;26.90;76.70;;;;;;5050631;28;20787;-78
2023/06/16 10:48:01;;;;;;;3.90;2.28;;;27.10;76.10;;;;;;5050962;28;20071;-82
2023/06/16 10:50:39;;;;;;;5.00;2.25;;;27.20;76.90;;;;;;5032909;28;20051;-82
2023/06/16 10:53:12;;;;;;;5.05;2.35;;;27.10;76.60;;;;;;5033019;28;20446;-81
2023/06/16 10:55:41;;;;;;;6.28;1.98;;;26.80;75.60;;;;;;5032776;28;20060;-81
2023/06/16 10:58:16;;;;;;;5.45;1.92;;;27.10;76.90;;;;;;5050852;28;20044;-81
2023/06/16 11:01:06;;;;;;;6.35;2.22;;;27.30;75.10;;;;;;5050083;28;20393;-76
2023/06/16 11:03:35;;;;;;;5.38;1.98;;;27.50;75.30;;;;;;5018739;28;20052;-77
2023/06/16 11:06:02;;;;;;;4.38;2.08;;;27.50;75.90;;;;;;5050462;28;20053;-81
2023/06/16 11:08:29;;;;;;;3.70;2.08;;;27.60;76.40;;;;;;5050240;28;20711;-81
2023/06/16 11:11:04;;;;;;;6.45;2.00;;;27.30;73.40;;;;;;5032419;28;20056;-82
2023/06/16 11:13:35;;;;;;;3.17;1.80;;;27.60;74.30;;;;;;5042505;28;20123;-80
2023/06/16 11:16:01;;;;;;;3.28;1.75;;;27.60;73.90;;;;;;5050390;28;20118;-82
2023/06/16 11:18:29;;;;;;;5.88;2.03;;;27.70;75.30;;;;;;5032230;28;20057;-80
2023/06/16 11:20:59;;;;;;;6.30;2.10;;;27.70;74.80;;;;;;5032518;28;20049;-82
2023/06/16 11:23:25;;;;;;;5.60;1.85;;;27.50;73.00;;;;;;5032106;28;20041;-80
2023/06/16 11:25:51;;;;;;;5.47;2.08;;;27.20;74.00;;;;;;5016174;28;20056;-80
2023/06/16 11:28:21;;;;;;;3.45;1.80;;;27.20;74.10;;;;;;5032355;28;20101;-82
2023/06/16 11:30:47;;;;;;;9.30;2.15;;;27.30;73.60;;;;;;5041927;28;20052;-81
2023/06/16 11:33:16;;;;;;;5.20;1.85;;;27.10;72.80;;;;;;5032288;28;20044;-82
2023/06/16 11:35:43;;;;;;;8.48;2.10;;;27.10;73.10;;;;;;5032034;28;20049;-76
2023/06/16 11:38:08;;;;;;;3.55;1.63;;;27.10;73.80;;;;;;5050206;28;20053;-81
2023/06/16 11:40:35;;;;;;;4.15;1.95;;;27.40;74.40;;;;;;5050435;28;20048;-80
2023/06/16 11:43:04;;;;;;;4.68;2.03;;;27.40;73.50;;;;;;5050148;28;20048;-81
2023/06/16 11:45:36;;;;;;;7.72;1.73;;;27.60;73.10;;;;;;5049561;28;20492;-80
2023/06/16 11:48:04;;;;;;;8.25;2.05;;;27.40;72.40;;;;;;5032605;28;20554;-78
2023/06/16 11:50:29;;;;;;;5.18;1.90;;;27.80;74.30;;;;;;5050407;28;20071;-80
2023/06/16 11:52:55;;;;;;;5.18;1.70;;;28.00;73.80;;;;;;5050098;28;20041;-81
2023/06/16 11:55:22;;;;;;;4.10;2.38;;;28.00;72.90;;;;;;5032219;28;20037;-78
2023/06/16 11:57:48;;;;;;;5.60;1.75;;;28.00;72.80;;;;;;5050331;28;20392;-79
2023/06/16 12:00:15;;;;;;;7.30;1.70;;;28.00;72.70;;;;;;5033000;28;20051;-81
2023/06/16 12:02:45;;;;;;;5.03;2.10;;;27.80;72.40;;;;;;5032016;28;20045;-81
2023/06/16 12:05:30;;;;;;;5.93;1.80;;;28.00;73.00;;;;;;5031875;28;20053;-82
2023/06/16 12:07:56;;;;;;;6.30;2.03;;;28.30;73.20;;;;;;5031714;28;20081;-82
2023/06/16 12:10:23;;;;;;;5.07;1.80;;;28.30;72.90;;;;;;5032289;28;20107;-78
2023/06/16 12:12:50;;;;;;;5.25;1.73;;;28.20;73.60;;;;;;5052762;28;20052;-79
2023/06/16 12:15:18;;;;;;;4.22;1.67;;;28.10;71.70;;;;;;5053977;28;20041;-81
2023/06/16 12:17:44;;;;;;;4.10;2.20;;;28.20;73.60;;;;;;5035758;28;20044;-80
2023/06/16 12:20:12;;;;;;;6.28;1.75;;;28.00;72.00;;;;;;5054157;28;20084;-81
2023/06/16 12:22:38;;;;;;;4.07;1.52;;;28.00;72.80;;;;;;5028578;28;20051;-79
2023/06/16 12:25:16;;;;;;;10.35;1.90;;;28.30;72.50;;;;;;5054094;28;20519;-80
2023/06/16 12:27:49;;;;;;;4.30;1.60;;;28.50;72.80;;;;;;5010977;28;20051;-81
2023/06/16 12:30:15;;;;;;;4.38;1.80;;;28.30;73.20;;;;;;5053146;28;20053;-81
2023/06/16 12:32:42;;;;;;;2.78;1.60;;;28.00;72.20;;;;;;5053358;28;20178;-79
2023/06/16 12:35:08;;;;;;;6.85;1.65;;;28.30;72.10;;;;;;5053656;28;20380;-81
2023/06/16 12:37:34;;;;;;;4.43;1.65;;;28.10;71.20;;;;;;5035604;28;20500;-81
2023/06/16 12:40:10;;;;;;;6.75;1.90;;;28.40;72.80;;;;;;5035315;28;20063;-80